createdAt,value
2018-08-23T00:01:31.214Z,19.50
2018-08-23T00:04:06.087Z,19.30
2018-08-23T00:06:35.081Z,19.30
2018-08-23T00:09:05.053Z,19.30
2018-08-23T00:11:35.643Z,19.30
2018-08-23T00:14:05.248Z,19.30
2018-08-23T00:16:42.494Z,19.30
2018-08-23T00:19:11.641Z,19.20
2018-08-23T00:21:44.913Z,19.20
2018-08-23T00:24:18.142Z,19.10
2018-08-23T00:26:58.607Z,19.10
2018-08-23T00:29:28.683Z,19.10
2018-08-23T00:31:59.105Z,19.10
2018-08-23T00:34:30.101Z,19.10
2018-08-23T00:36:59.519Z,19.10
2018-08-23T00:39:29.030Z,19.00
2018-08-23T00:42:05.255Z,19.00
2018-08-23T00:44:49.278Z,19.10
2018-08-23T00:47:18.308Z,19.10
2018-08-23T00:49:47.111Z,19.00
2018-08-23T00:52:18.844Z,19.00
2018-08-23T00:54:47.674Z,19.00
2018-08-23T00:57:17.301Z,19.00
2018-08-23T00:59:50.318Z,19.10
2018-08-23T01:02:19.757Z,18.80
2018-08-23T01:04:48.574Z,18.90
2018-08-23T01:07:21.538Z,18.90
2018-08-23T01:09:51.201Z,18.80
2018-08-23T01:12:20.558Z,18.80
2018-08-23T01:14:51.607Z,18.90
2018-08-23T01:17:20.591Z,18.90
2018-08-23T01:19:59.987Z,18.80
2018-08-23T01:29:28.920Z,18.90
2018-08-23T01:32:13.071Z,19.00
2018-08-23T01:34:42.567Z,19.00
2018-08-23T01:37:13.017Z,18.90
2018-08-23T01:39:41.845Z,18.80
2018-08-23T01:42:10.872Z,18.70
2018-08-23T01:44:42.475Z,18.70
2018-08-23T01:47:11.271Z,18.70
2018-08-23T01:49:40.052Z,18.70
2018-08-23T01:52:09.918Z,18.70
2018-08-23T01:54:39.651Z,18.70
2018-08-23T01:57:09.267Z,18.70
2018-08-23T01:59:38.076Z,18.70
2018-08-23T02:02:11.208Z,18.70
2018-08-23T02:04:40.011Z,18.50
2018-08-23T02:07:09.702Z,18.30
2018-08-23T02:09:38.555Z,18.30
2018-08-23T02:12:08.377Z,18.30
2018-08-23T02:14:43.599Z,18.40
2018-08-23T02:17:12.413Z,18.40
2018-08-23T02:19:45.654Z,18.40
2018-08-23T02:22:15.046Z,18.40
2018-08-23T02:24:47.866Z,18.30
2018-08-23T02:27:18.250Z,18.30
2018-08-23T02:29:49.067Z,18.30
2018-08-23T02:32:17.838Z,18.20
2018-08-23T02:34:48.273Z,18.20
2018-08-23T02:37:17.800Z,18.20
2018-08-23T02:39:48.178Z,18.00
2018-08-23T02:42:18.844Z,18.10
2018-08-23T02:44:47.765Z,18.10
2018-08-23T02:47:16.580Z,18.10
2018-08-23T02:49:45.666Z,18.00
2018-08-23T02:52:16.128Z,18.00
2018-08-23T02:54:47.908Z,18.00
2018-08-23T02:57:16.760Z,18.00
2018-08-23T02:59:45.575Z,17.90
2018-08-23T03:02:15.957Z,17.70
2018-08-23T03:04:44.779Z,17.60
2018-08-23T03:07:13.590Z,17.70
2018-08-23T03:09:45.522Z,17.60
2018-08-23T03:12:20.751Z,17.70
2018-08-23T03:14:49.640Z,17.70
2018-08-23T03:17:31.181Z,17.70
2018-08-23T03:20:04.439Z,17.50
2018-08-23T03:22:34.132Z,17.50
2018-08-23T03:25:05.117Z,17.40
2018-08-23T03:27:33.977Z,17.40
2018-08-23T03:30:03.731Z,17.50
2018-08-23T03:32:32.583Z,17.50
2018-08-23T03:35:02.584Z,17.40
2018-08-23T03:37:31.387Z,17.40
2018-08-23T03:41:19.975Z,17.40
2018-08-23T03:43:48.807Z,17.30
2018-08-23T03:46:17.610Z,17.20
2018-08-23T03:48:51.413Z,17.30
2018-08-23T03:51:20.963Z,17.20
2018-08-23T03:53:55.559Z,17.20
2018-08-23T03:56:24.386Z,17.10
2018-08-23T03:58:53.210Z,17.00
2018-08-23T04:01:22.065Z,17.00
2018-08-23T04:03:51.235Z,16.80
2018-08-23T04:06:36.645Z,17.00
2018-08-23T04:09:08.513Z,17.00
2018-08-23T04:11:37.439Z,17.10
2018-08-23T04:14:06.446Z,17.00
2018-08-23T04:16:35.275Z,16.90
2018-08-23T04:19:04.191Z,17.00
2018-08-23T04:21:33.683Z,17.00
2018-08-23T04:24:02.618Z,17.10
2018-08-23T04:26:34.342Z,17.00
2018-08-23T04:29:03.296Z,17.10
2018-08-23T04:31:32.165Z,17.10
2018-08-23T04:34:06.534Z,17.10
2018-08-23T04:36:35.774Z,17.10
2018-08-23T04:39:07.079Z,17.10
2018-08-23T04:41:35.930Z,17.10
2018-08-23T04:44:13.164Z,17.10
2018-08-23T04:46:44.103Z,17.20
2018-08-23T04:49:12.977Z,17.20
2018-08-23T04:51:43.153Z,17.20
2018-08-23T04:54:12.049Z,17.20
2018-08-23T04:56:44.086Z,17.20
2018-08-23T04:59:12.970Z,17.10
2018-08-23T05:01:41.916Z,17.20
2018-08-23T05:04:10.814Z,17.20
2018-08-23T05:06:40.317Z,17.10
2018-08-23T05:09:09.607Z,17.20
2018-08-23T05:11:39.426Z,17.30
2018-08-23T05:14:09.386Z,17.30
2018-08-23T05:16:39.179Z,17.50
2018-08-23T05:19:08.134Z,17.60
2018-08-23T05:21:37.007Z,17.60
2018-08-23T05:24:11.651Z,17.80
2018-08-23T05:26:40.746Z,17.80
2018-08-23T05:29:09.819Z,18.10
2018-08-23T05:31:38.792Z,18.40
2018-08-23T05:34:09.484Z,18.50
2018-08-23T05:36:38.330Z,18.70
2018-08-23T05:39:08.627Z,18.70
2018-08-23T05:41:38.280Z,18.90
2018-08-23T05:44:23.334Z,18.90
2018-08-23T05:46:57.798Z,18.90
2018-08-23T05:49:28.034Z,19.00
2018-08-23T05:51:58.577Z,19.50
2018-08-23T05:55:46.887Z,19.80
2018-08-23T05:58:21.372Z,20.00
2018-08-23T06:00:52.200Z,20.30
2018-08-23T06:03:21.243Z,20.60
2018-08-23T06:05:50.658Z,20.80
2018-08-23T06:08:19.542Z,21.10
2018-08-23T06:10:55.685Z,21.40
2018-08-23T06:13:26.990Z,21.70
2018-08-23T06:15:57.340Z,21.90
2018-08-23T06:18:27.654Z,22.20
2018-08-23T06:20:56.772Z,22.20
2018-08-23T06:24:05.246Z,22.50
2018-08-23T06:26:45.128Z,22.70
2018-08-23T06:29:18.232Z,22.80
2018-08-23T06:32:15.836Z,23.00
2018-08-23T06:34:51.501Z,22.90
2018-08-23T06:37:21.682Z,23.40
2018-08-23T06:39:51.364Z,23.50
2018-08-23T06:42:20.290Z,23.60
2018-08-23T06:44:55.313Z,23.80
2018-08-23T06:47:26.836Z,24.10
2018-08-23T06:49:57.628Z,24.00
2018-08-23T06:52:38.178Z,24.10
2018-08-23T06:55:09.420Z,24.40
2018-08-23T06:57:47.961Z,24.70
2018-08-23T07:00:25.536Z,25.00
2018-08-23T07:02:56.653Z,25.10
2018-08-23T07:05:26.460Z,25.10
2018-08-23T07:07:55.337Z,25.20
2018-08-23T07:10:24.205Z,25.40
2018-08-23T07:12:56.683Z,25.50
2018-08-23T07:15:25.746Z,25.80
2018-08-23T07:17:55.939Z,26.00
2018-08-23T07:20:24.957Z,25.60
2018-08-23T07:22:54.902Z,25.90
2018-08-23T07:25:24.564Z,26.20
2018-08-23T07:27:55.511Z,26.20
2018-08-23T07:30:26.006Z,26.40
2018-08-23T07:33:10.656Z,26.30
2018-08-23T07:35:39.736Z,26.80
2018-08-23T07:38:10.495Z,27.10
2018-08-23T07:40:41.647Z,27.20
2018-08-23T07:43:10.789Z,26.80
2018-08-23T07:45:41.444Z,26.50
2018-08-23T07:48:13.050Z,26.80
2018-08-23T07:50:44.342Z,26.90
2018-08-23T07:53:15.710Z,27.50
2018-08-23T07:55:44.498Z,27.80
2018-08-23T07:58:15.184Z,27.80
2018-08-23T08:00:46.151Z,27.40
2018-08-23T08:03:15.976Z,27.90
2018-08-23T08:05:46.221Z,28.20
2018-08-23T08:08:18.036Z,28.60
2018-08-23T08:10:48.158Z,28.50
2018-08-23T08:13:23.852Z,28.80
2018-08-23T08:15:53.475Z,29.40
2018-08-23T08:18:25.598Z,29.80
2018-08-23T08:21:02.184Z,30.60
2018-08-23T08:23:32.518Z,31.20
2018-08-23T08:26:02.143Z,31.90
2018-08-23T08:28:32.224Z,32.20
2018-08-23T08:31:04.053Z,32.60
2018-08-23T08:33:40.885Z,33.30
2018-08-23T08:36:10.527Z,33.00
2018-08-23T08:38:47.041Z,33.30
2018-08-23T08:41:17.191Z,33.20
2018-08-23T08:43:50.799Z,33.00
2018-08-23T08:46:20.966Z,32.50
2018-08-23T08:48:49.856Z,33.00
2018-08-23T08:51:23.914Z,33.40
2018-08-23T08:53:55.336Z,34.00
2018-08-23T08:56:34.656Z,33.60
2018-08-23T08:59:05.650Z,34.60
2018-08-23T09:01:36.048Z,35.40
2018-08-23T09:04:05.731Z,35.90
2018-08-23T09:07:06.419Z,36.00
2018-08-23T09:09:38.005Z,37.40
2018-08-23T09:12:08.297Z,37.80
2018-08-23T09:14:42.106Z,37.90
2018-08-23T09:17:27.159Z,37.30
2018-08-23T09:20:07.300Z,37.30
2018-08-23T09:22:41.620Z,37.80
2018-08-23T09:25:18.392Z,38.80
2018-08-23T09:27:49.231Z,38.60
2018-08-23T09:30:23.313Z,39.20
2018-08-23T09:32:52.251Z,38.10
2018-08-23T09:35:23.824Z,38.00
2018-08-23T09:37:56.792Z,38.50
2018-08-23T09:40:27.252Z,38.30
2018-08-23T09:42:56.390Z,38.00
2018-08-23T09:45:27.721Z,36.40
2018-08-23T09:48:05.931Z,35.50
2018-08-23T09:50:36.350Z,36.50
2018-08-23T09:53:25.697Z,36.30
2018-08-23T09:55:57.787Z,36.80
2018-08-23T09:58:31.792Z,37.70
2018-08-23T10:01:08.324Z,38.10
2018-08-23T10:03:42.482Z,38.30
2018-08-23T10:06:17.374Z,38.00
2018-08-23T10:08:54.153Z,37.70
2018-08-23T10:11:29.476Z,37.00
2018-08-23T10:14:10.687Z,37.00
2018-08-23T10:16:54.047Z,37.60
2018-08-23T10:19:30.494Z,37.60
2018-08-23T10:22:05.709Z,38.60
2018-08-23T10:24:34.848Z,39.20
2018-08-23T10:27:05.671Z,39.80
2018-08-23T10:29:35.686Z,40.70
2018-08-23T10:32:07.762Z,40.30
2018-08-23T10:34:38.175Z,40.70
2018-08-23T10:37:07.503Z,41.20
2018-08-23T10:39:40.225Z,41.40
2018-08-23T10:42:13.500Z,41.40
2018-08-23T10:44:44.205Z,39.90
2018-08-23T10:47:17.291Z,38.70
2018-08-23T10:49:50.779Z,38.70
2018-08-23T10:52:19.809Z,39.00
2018-08-23T10:56:08.406Z,39.50
2018-08-23T10:58:37.815Z,39.50
2018-08-23T11:01:09.098Z,39.10
2018-08-23T11:03:39.300Z,38.40
2018-08-23T11:06:09.701Z,37.00
2018-08-23T11:08:39.151Z,36.60
2018-08-23T11:11:15.697Z,36.70
2018-08-23T11:13:47.717Z,37.10
2018-08-23T11:16:26.802Z,37.30
2018-08-23T11:19:01.856Z,35.70
2018-08-23T11:21:31.138Z,34.60
2018-08-23T11:24:00.211Z,34.00
2018-08-23T11:26:34.820Z,34.30
2018-08-23T11:29:06.269Z,34.30
2018-08-23T11:31:37.287Z,34.30
2018-08-23T11:34:09.146Z,34.40
2018-08-23T11:36:40.206Z,34.10
2018-08-23T11:39:13.181Z,33.80
2018-08-23T11:41:43.380Z,33.70
2018-08-23T11:44:15.888Z,34.00
2018-08-23T11:46:45.305Z,33.90
2018-08-23T11:49:14.995Z,34.10
2018-08-23T11:51:44.583Z,33.80
2018-08-23T11:54:16.194Z,33.30
2018-08-23T11:56:54.674Z,33.50
2018-08-23T11:59:24.723Z,33.30
2018-08-23T12:01:56.574Z,33.60
2018-08-23T12:04:26.169Z,33.70
2018-08-23T12:06:57.683Z,34.20
2018-08-23T12:09:33.292Z,34.80
2018-08-23T12:12:07.509Z,35.30
2018-08-23T12:14:36.439Z,35.40
2018-08-23T12:17:08.437Z,34.50
2018-08-23T12:19:37.413Z,33.70
2018-08-23T12:22:06.277Z,32.80
2018-08-23T12:24:35.561Z,32.90
2018-08-23T12:27:07.468Z,33.30
2018-08-23T12:29:38.395Z,33.80
2018-08-23T12:32:09.304Z,33.50
2018-08-23T12:34:39.104Z,33.50
2018-08-23T12:37:13.153Z,33.50
2018-08-23T12:39:48.881Z,33.30
2018-08-23T12:42:23.031Z,33.80
2018-08-23T12:44:54.147Z,33.80
2018-08-23T12:47:26.152Z,33.80
2018-08-23T12:49:59.294Z,34.20
2018-08-23T13:01:34.221Z,34.20
2018-08-23T13:04:03.883Z,34.20
2018-08-23T13:06:35.219Z,33.70
2018-08-23T13:09:06.279Z,33.40
2018-08-23T13:11:37.658Z,33.20
2018-08-23T13:14:09.201Z,32.50
2018-08-23T13:16:38.659Z,32.70
2018-08-23T13:19:12.547Z,32.80
2018-08-23T13:21:44.181Z,32.90
2018-08-23T13:24:15.895Z,33.10
2018-08-23T13:26:45.370Z,33.30
2018-08-23T13:29:15.382Z,33.00
2018-08-23T13:31:44.986Z,33.20
2018-08-23T13:34:14.596Z,33.50
2018-08-23T13:36:44.732Z,33.40
2018-08-23T13:39:27.086Z,32.30
2018-08-23T13:41:59.755Z,32.20
2018-08-23T13:44:37.030Z,32.20
2018-08-23T13:47:09.779Z,32.00
2018-08-23T13:49:39.675Z,31.80
2018-08-23T13:52:12.173Z,31.70
2018-08-23T13:54:43.029Z,31.80
2018-08-23T13:57:13.199Z,32.00
2018-08-23T13:59:42.065Z,32.10
2018-08-23T14:02:12.377Z,32.20
2018-08-23T14:04:43.782Z,32.40
2018-08-23T14:07:12.816Z,32.50
2018-08-23T14:09:43.199Z,32.30
2018-08-23T14:12:13.624Z,32.10
2018-08-23T14:14:43.567Z,32.20
2018-08-23T14:17:15.153Z,32.30
2018-08-23T14:19:44.391Z,32.00
2018-08-23T14:22:14.378Z,31.90
2018-08-23T14:24:43.272Z,31.90
2018-08-23T14:27:14.834Z,32.10
2018-08-23T14:29:45.156Z,32.00
2018-08-23T14:32:15.180Z,31.90
2018-08-23T14:34:57.557Z,31.80
2018-08-23T14:37:27.408Z,31.70
2018-08-23T14:39:57.700Z,31.70
2018-08-23T14:42:26.590Z,31.90
2018-08-23T14:44:56.325Z,32.00
2018-08-23T14:47:30.510Z,31.90
2018-08-23T14:50:01.249Z,31.80
2018-08-23T14:52:30.274Z,31.80
2018-08-23T14:55:00.885Z,31.70
2018-08-23T14:57:34.025Z,31.50
2018-08-23T15:00:03.195Z,31.50
2018-08-23T15:02:32.369Z,31.20
2018-08-23T15:05:06.684Z,31.30
2018-08-23T15:07:42.851Z,31.20
2018-08-23T15:10:16.352Z,31.20
2018-08-23T15:12:47.616Z,31.20
2018-08-23T15:15:16.554Z,31.10
2018-08-23T15:17:48.213Z,31.10
2018-08-23T15:20:19.384Z,31.20
2018-08-23T15:22:48.613Z,31.20
2018-08-23T15:25:18.529Z,31.20
2018-08-23T15:27:47.688Z,31.30
2018-08-23T15:30:17.734Z,31.30
2018-08-23T15:32:46.715Z,31.40
2018-08-23T15:35:19.725Z,31.50
2018-08-23T15:37:51.595Z,31.50
2018-08-23T15:40:25.304Z,31.40
2018-08-23T15:42:55.555Z,31.40
2018-08-23T15:45:25.249Z,31.40
2018-08-23T15:47:54.362Z,31.30
2018-08-23T15:50:24.324Z,31.40
2018-08-23T15:52:56.471Z,31.10
2018-08-23T15:55:28.424Z,31.00
2018-08-23T15:57:57.251Z,31.00
2018-08-23T16:00:32.102Z,30.90
2018-08-23T16:03:02.175Z,30.80
2018-08-23T16:05:34.468Z,30.70
2018-08-23T16:08:05.622Z,30.70
2018-08-23T16:10:34.651Z,30.30
2018-08-23T16:13:03.607Z,30.10
2018-08-23T16:15:33.271Z,30.10
2018-08-23T16:18:07.396Z,30.10
2018-08-23T16:20:42.979Z,29.90
2018-08-23T16:23:12.154Z,29.70
2018-08-23T16:25:45.563Z,29.50
2018-08-23T16:28:18.166Z,29.30
2018-08-23T16:30:47.292Z,29.20
2018-08-23T16:33:18.344Z,29.10
2018-08-23T16:35:48.297Z,28.90
2018-08-23T16:38:18.808Z,28.90
2018-08-23T16:40:48.300Z,28.80
2018-08-23T16:43:18.297Z,28.70
2018-08-23T16:45:47.751Z,28.80
2018-08-23T16:48:20.293Z,28.70
2018-08-23T16:50:51.715Z,28.70
2018-08-23T16:53:22.485Z,28.80
2018-08-23T16:55:52.254Z,28.90
2018-08-23T16:58:21.928Z,28.90
2018-08-23T17:00:54.284Z,28.90
2018-08-23T17:03:27.291Z,28.90
2018-08-23T17:06:03.439Z,28.90
2018-08-23T17:08:34.385Z,28.80
2018-08-23T17:11:05.263Z,28.80
2018-08-23T17:13:38.194Z,28.70
2018-08-23T17:16:14.666Z,28.60
2018-08-23T17:18:45.944Z,28.60
2018-08-23T17:21:16.759Z,28.50
2018-08-23T17:23:47.641Z,28.40
2018-08-23T17:26:20.146Z,28.20
2018-08-23T17:28:51.291Z,28.10
2018-08-23T17:31:24.306Z,28.00
2018-08-23T17:33:56.357Z,27.90
2018-08-23T17:36:28.637Z,27.90
2018-08-23T17:38:58.533Z,27.80
2018-08-23T17:41:28.555Z,27.70
2018-08-23T17:43:59.631Z,27.60
2018-08-23T17:46:29.595Z,27.50
2018-08-23T17:49:03.403Z,27.40
2018-08-23T17:51:43.063Z,27.40
2018-08-23T17:54:29.371Z,27.30
2018-08-23T17:56:58.280Z,27.10
2018-08-23T17:59:27.763Z,27.00
2018-08-23T18:02:00.753Z,26.90
2018-08-23T18:04:30.802Z,26.90
2018-08-23T18:07:01.421Z,26.70
2018-08-23T18:09:33.209Z,26.70
2018-08-23T18:12:02.846Z,26.60
2018-08-23T18:14:33.129Z,26.50
2018-08-23T18:17:03.255Z,26.50
2018-08-23T18:19:32.156Z,26.40
2018-08-23T18:22:01.899Z,26.30
2018-08-23T18:24:32.624Z,26.10
2018-08-23T18:27:02.532Z,26.10
2018-08-23T18:29:32.235Z,26.10
2018-08-23T18:32:02.416Z,25.90
2018-08-23T18:34:33.946Z,25.90
2018-08-23T18:37:09.631Z,25.80
2018-08-23T18:39:40.610Z,25.70
2018-08-23T18:42:10.186Z,25.70
2018-08-23T18:44:42.361Z,25.60
2018-08-23T18:47:16.392Z,25.50
2018-08-23T18:49:45.215Z,25.40
2018-08-23T18:52:14.300Z,25.40
2018-08-23T18:54:44.059Z,25.20
2018-08-23T18:57:17.602Z,25.10
2018-08-23T18:59:47.377Z,24.90
2018-08-23T19:02:18.247Z,24.80
2018-08-23T19:04:50.047Z,24.60
2018-08-23T19:07:29.024Z,24.40
2018-08-23T19:10:01.622Z,24.20
2018-08-23T19:12:35.146Z,24.20
2018-08-23T19:15:07.535Z,24.10
2018-08-23T19:17:42.143Z,24.00
2018-08-23T19:20:13.208Z,23.80
2018-08-23T19:22:45.630Z,23.70
2018-08-23T19:25:17.938Z,23.40
2018-08-23T19:27:49.274Z,23.30
2018-08-23T19:30:22.102Z,23.20
2018-08-23T19:32:52.914Z,23.20
2018-08-23T19:35:23.801Z,23.10
2018-08-23T19:37:53.487Z,23.10
2018-08-23T19:40:23.393Z,23.00
2018-08-23T19:42:54.943Z,23.00
2018-08-23T19:45:25.249Z,23.00
2018-08-23T19:47:59.465Z,22.90
2018-08-23T19:50:33.281Z,22.60
2018-08-23T19:53:05.017Z,22.50
2018-08-23T19:55:36.301Z,22.50
2018-08-23T19:58:11.275Z,22.40
2018-08-23T20:00:41.123Z,22.30
2018-08-23T20:03:13.808Z,22.20
2018-08-23T20:05:42.736Z,22.30
2018-08-23T20:08:13.103Z,22.30
2018-08-23T20:12:03.411Z,22.30
2018-08-23T20:14:35.127Z,22.30
2018-08-23T20:17:07.626Z,22.20
2018-08-23T20:19:39.732Z,22.20
2018-08-23T20:22:10.638Z,22.20
2018-08-23T20:24:40.148Z,22.10
2018-08-23T20:27:10.210Z,22.00
2018-08-23T20:29:45.114Z,21.90
2018-08-23T20:32:14.659Z,21.80
2018-08-23T20:35:08.827Z,21.80
2018-08-23T20:37:39.301Z,21.70
2018-08-23T20:40:13.285Z,21.70
2018-08-23T20:42:45.372Z,21.70
2018-08-23T20:45:18.546Z,21.70
2018-08-23T20:47:50.287Z,21.80
2018-08-23T20:50:22.155Z,21.80
2018-08-23T20:52:52.216Z,21.90
2018-08-23T20:55:22.411Z,22.10
2018-08-23T20:57:55.097Z,22.30
2018-08-23T21:00:26.663Z,22.40
2018-08-23T21:02:57.155Z,22.60
2018-08-23T21:05:31.139Z,22.60
2018-08-23T21:08:03.673Z,22.60
2018-08-23T21:10:37.773Z,22.60
2018-08-23T21:13:07.374Z,22.70
2018-08-23T21:15:38.933Z,22.70
2018-08-23T21:18:13.591Z,22.80
2018-08-23T21:20:43.172Z,22.80
2018-08-23T21:23:16.458Z,22.70
2018-08-23T21:25:46.951Z,22.60
2018-08-23T21:28:17.822Z,22.60
2018-08-23T21:30:49.578Z,22.60
2018-08-23T21:33:18.393Z,22.70
2018-08-23T21:35:53.716Z,22.60
2018-08-23T21:38:23.953Z,22.50
2018-08-23T21:40:52.886Z,22.40
2018-08-23T21:43:22.625Z,22.50
2018-08-23T21:45:51.562Z,22.50
2018-08-23T21:48:28.044Z,22.50
2018-08-23T21:50:59.250Z,22.60
2018-08-23T21:53:31.272Z,22.60
2018-08-23T21:56:00.760Z,22.50
2018-08-23T21:58:30.410Z,22.50
2018-08-23T22:01:04.423Z,22.60
2018-08-23T22:03:40.185Z,22.70
2018-08-23T22:06:14.551Z,22.70
2018-08-23T22:08:45.639Z,22.60
2018-08-23T22:11:20.663Z,22.60
2018-08-23T22:13:51.351Z,22.50
2018-08-23T22:16:21.123Z,22.50
2018-08-23T22:18:51.971Z,22.50
2018-08-23T22:21:22.427Z,22.50
2018-08-23T22:23:56.244Z,22.40
2018-08-23T22:26:25.571Z,22.40
2018-08-23T22:28:55.935Z,22.30
2018-08-23T22:31:27.617Z,22.30
2018-08-23T22:33:58.479Z,22.20
2018-08-23T22:36:28.919Z,22.20
2018-08-23T22:38:58.407Z,22.20
2018-08-23T22:41:27.686Z,22.10
2018-08-23T22:43:56.827Z,22.10
2018-08-23T22:46:26.363Z,22.00
2018-08-23T22:48:56.540Z,22.00
2018-08-23T22:51:27.454Z,22.00
2018-08-23T22:53:56.973Z,21.90
2018-08-23T22:56:28.087Z,21.90
2018-08-23T22:58:57.280Z,21.90
2018-08-23T23:01:28.234Z,21.90
2018-08-23T23:04:02.385Z,21.70
2018-08-23T23:06:34.983Z,21.40
2018-08-23T23:09:05.725Z,21.40
2018-08-23T23:11:35.997Z,21.30
2018-08-23T23:14:06.428Z,21.20
2018-08-23T23:16:36.634Z,21.20
2018-08-23T23:19:05.831Z,21.10
2018-08-23T23:21:35.650Z,21.20
2018-08-23T23:24:06.058Z,21.20
2018-08-23T23:26:36.129Z,21.20
2018-08-23T23:29:08.552Z,21.30
2018-08-23T23:31:39.077Z,21.40
2018-08-23T23:34:08.495Z,21.40
2018-08-23T23:36:39.453Z,21.50
2018-08-23T23:39:08.648Z,21.50
2018-08-23T23:41:39.468Z,21.60
2018-08-23T23:44:09.217Z,21.60
2018-08-23T23:46:38.631Z,21.60
2018-08-23T23:49:08.893Z,21.60
2018-08-23T23:51:39.337Z,21.50
2018-08-23T23:54:11.315Z,21.40
2018-08-23T23:56:45.213Z,21.30
2018-08-23T23:59:14.012Z,21.30
